Time;durP1;ratioP1;P1;durP2;ratioP2;P2;SDS_P1;SDS_P2;PMS_P1;PMS_P2;Temp;Humidity;BMP_temperature;BMP_pressure;BME280_temperature;BME280_humidity;BME280_pressure;Samples;Min_cycle;Max_cycle;Signal;HPM_P1;HPM_P2
2023/06/05 04:22:33;;;;;;;2.47;1.30;;;;;;;11.86;80.85;100349.78;5089619;28;20228;-69
2023/06/05 04:24:59;;;;;;;2.75;1.70;;;;;;;11.92;80.67;100352.56;5089812;28;20040;-69
2023/06/05 04:27:28;;;;;;;2.88;1.60;;;;;;;11.95;80.80;100349.56;5088154;28;20032;-68
2023/06/05 04:29:54;;;;;;;1.83;1.45;;;;;;;11.98;80.50;100359.03;5087765;28;20047;-69
2023/06/05 04:32:19;;;;;;;5.03;1.50;;;;;;;12.05;79.41;100343.97;5088080;28;20032;-69
2023/06/05 04:34:45;;;;;;;1.88;1.42;;;;;;;12.12;78.70;100344.91;5087805;28;20122;-68
2023/06/05 04:37:10;;;;;;;2.15;1.30;;;;;;;12.19;78.41;100343.19;5087999;28;20518;-68
2023/06/05 04:39:36;;;;;;;1.48;1.15;;;;;;;12.30;78.23;100346.41;5088988;28;20036;-68
2023/06/05 04:42:02;;;;;;;2.10;1.45;;;;;;;12.38;77.59;100354.34;5087727;28;20044;-69
2023/06/05 04:44:27;;;;;;;2.75;1.40;;;;;;;12.43;76.91;100347.44;5087747;28;20034;-69
2023/06/05 04:46:53;;;;;;;3.85;1.70;;;;;;;12.50;76.36;100343.03;5089408;28;20044;-69
2023/06/05 04:49:19;;;;;;;2.20;1.55;;;;;;;12.57;75.83;100345.78;5087467;28;20043;-69
2023/06/05 04:51:45;;;;;;;2.63;1.70;;;;;;;12.62;76.54;100348.75;5087687;28;20126;-69
2023/06/05 04:54:12;;;;;;;3.42;1.70;;;;;;;12.72;75.99;100351.16;5087717;28;20086;-69
2023/06/05 04:56:39;;;;;;;6.05;1.88;;;;;;;12.77;76.21;100354.09;5087920;28;20313;-69
2023/06/05 04:59:05;;;;;;;1.95;1.50;;;;;;;12.85;76.33;100342.50;5086647;28;20040;-68
2023/06/05 05:01:31;;;;;;;3.65;1.65;;;;;;;12.87;75.12;100349.31;5088669;28;20047;-68
2023/06/05 05:03:57;;;;;;;4.95;1.58;;;;;;;13.00;74.54;100354.81;5087559;28;20036;-69
2023/06/05 05:06:24;;;;;;;1.92;1.50;;;;;;;13.06;73.80;100349.75;5087296;28;20493;-70
2023/06/05 05:08:50;;;;;;;2.10;1.42;;;;;;;13.13;72.50;100356.84;5088274;28;20043;-69
2023/06/05 05:11:16;;;;;;;2.13;1.30;;;;;;;13.23;71.86;100356.56;5088454;28;20029;-69
2023/06/05 05:13:42;;;;;;;3.17;1.52;;;;;;;13.34;71.61;100353.41;5088602;28;20036;-69
2023/06/05 05:16:08;;;;;;;2.90;1.30;;;;;;;13.43;71.20;100360.31;5088474;28;20044;-66
2023/06/05 05:18:36;;;;;;;2.20;1.30;;;;;;;13.50;70.78;100352.34;5086541;28;20165;-67
2023/06/05 05:21:02;;;;;;;;;;;;;;;13.56;70.17;100362.28;5087267;28;20032;-67
2023/06/05 05:23:28;;;;;;;1.88;1.20;;;;;;;13.66;69.23;100359.31;5086494;28;19917;-66
2023/06/05 05:25:54;;;;;;;5.40;1.20;;;;;;;13.72;68.48;100354.03;5086766;28;20046;-67
2023/06/05 05:28:19;;;;;;;2.00;1.30;;;;;;;13.81;67.74;100355.53;5069886;28;20050;-66
2023/06/05 05:30:45;;;;;;;2.85;1.40;;;;;;;13.84;67.48;100347.13;5086907;28;20036;-66
2023/06/05 05:33:11;;;;;;;1.58;1.23;;;;;;;13.95;66.85;100352.97;5078652;28;20029;-66
2023/06/05 05:35:36;;;;;;;1.58;1.08;;;;;;;14.01;65.03;100352.22;5073307;28;20032;-65
2023/06/05 05:38:01;;;;;;;1.80;1.33;;;;;;;14.10;63.97;100354.56;5039969;28;20045;-66
2023/06/05 05:40:27;;;;;;;2.28;1.25;;;;;;;14.20;64.50;100354.22;5072778;28;20076;-66
2023/06/05 05:42:52;;;;;;;1.15;1.05;;;;;;;14.21;64.00;100358.56;5073072;28;20043;-66
2023/06/05 05:45:17;;;;;;;2.05;1.23;;;;;;;14.36;63.84;100353.13;5072971;28;20079;-66
2023/06/05 05:47:43;;;;;;;1.35;1.08;;;;;;;14.40;61.97;100347.16;5074526;28;20049;-63
2023/06/05 05:50:09;;;;;;;1.48;0.90;;;;;;;14.49;64.62;100355.94;5073052;28;20230;-59
2023/06/05 05:52:34;;;;;;;2.13;1.15;;;;;;;14.59;63.37;100359.06;5074292;28;20040;-58
2023/06/05 05:55:00;;;;;;;1.48;1.10;;;;;;;14.75;60.88;100362.47;5074508;28;20041;-58
2023/06/05 05:57:27;;;;;;;2.10;1.13;;;;;;;14.88;60.33;100359.88;5074158;28;20182;-58
2023/06/05 05:59:53;;;;;;;2.00;1.17;;;;;;;14.91;59.33;100360.28;5074031;28;20051;-59
2023/06/05 06:02:18;;;;;;;3.88;1.30;;;;;;;15.06;60.92;100364.69;5074134;28;20044;-58
2023/06/05 06:04:44;;;;;;;4.05;1.23;;;;;;;15.19;59.14;100365.59;5074232;28;20036;-57
2023/06/05 06:07:10;;;;;;;1.75;1.25;;;;;;;15.26;59.05;100372.81;5074076;28;20040;-58
2023/06/05 06:09:35;;;;;;;1.50;1.13;;;;;;;15.17;59.11;100362.25;5072621;28;20519;-58
2023/06/05 06:12:05;;;;;;;1.65;1.27;;;;;;;15.20;58.51;100361.06;5074073;28;20037;-59
2023/06/05 06:14:32;;;;;;;1.63;1.20;;;;;;;15.23;60.26;100363.31;5074057;28;20044;-59
2023/06/05 06:16:57;;;;;;;1.75;1.30;;;;;;;15.34;60.24;100360.06;5073855;28;20046;-59
2023/06/05 06:19:23;;;;;;;1.23;1.13;;;;;;;15.34;58.85;100362.75;5073564;28;20123;-59
2023/06/05 06:21:51;;;;;;;2.50;1.02;;;;;;;15.40;57.71;100353.06;5088133;28;20500;-60
2023/06/05 06:24:19;;;;;;;1.08;0.88;;;;;;;15.38;58.07;100352.41;5093965;28;20020;-58
2023/06/05 06:26:48;;;;;;;2.45;1.60;;;;;;;15.53;58.36;100357.66;5093882;28;20040;-60
2023/06/05 06:29:18;;;;;;;2.33;1.30;;;;;;;15.56;58.26;100343.81;5093646;28;20554;-60
2023/06/05 06:31:44;;;;;;;1.58;0.88;;;;;;;15.72;58.85;100351.53;5093818;28;20089;-61
2023/06/05 06:34:10;;;;;;;2.30;1.30;;;;;;;15.72;56.90;100349.66;5093950;28;20039;-59
2023/06/05 06:36:43;;;;;;;0.98;0.82;;;;;;;15.81;57.44;100354.84;5093743;28;20118;-60
2023/06/05 06:39:12;;;;;;;1.48;1.08;;;;;;;15.93;56.45;100358.56;5093407;28;20056;-58
2023/06/05 06:41:38;;;;;;;1.88;1.13;;;;;;;16.01;55.87;100356.50;5093628;28;20024;-57
2023/06/05 06:44:04;;;;;;;1.50;1.05;;;;;;;16.08;56.39;100366.44;5092715;28;20093;-60
2023/06/05 06:46:30;;;;;;;1.80;1.25;;;;;;;16.28;56.08;100364.56;5093505;28;20046;-60
2023/06/05 06:48:56;;;;;;;1.63;1.15;;;;;;;16.26;55.53;100363.94;5093350;28;20070;-61
2023/06/05 06:51:24;;;;;;;2.10;1.15;;;;;;;16.41;57.56;100359.19;5093615;28;20061;-59
2023/06/05 06:53:50;;;;;;;1.77;1.20;;;;;;;16.51;56.66;100364.13;5093383;28;20040;-58
2023/06/05 06:56:17;;;;;;;1.60;1.20;;;;;;;16.58;57.04;100361.44;5083688;28;20039;-60
2023/06/05 06:58:44;;;;;;;2.88;1.08;;;;;;;16.67;55.60;100352.09;5080461;28;20115;-59
2023/06/05 07:01:11;;;;;;;1.35;1.00;;;;;;;16.84;53.98;100356.03;5082738;28;20036;-67
2023/06/05 07:03:36;;;;;;;1.35;1.10;;;;;;;16.90;53.15;100355.19;5081072;28;20032;-66
2023/06/05 07:06:02;;;;;;;1.63;0.90;;;;;;;17.08;53.08;100351.78;5080600;28;20123;-65
2023/06/05 07:08:27;;;;;;;2.10;1.13;;;;;;;17.09;52.90;100346.22;5082347;28;20116;-66
2023/06/05 07:10:56;;;;;;;3.58;1.20;;;;;;;17.22;53.82;100349.91;5075078;28;20055;-65
2023/06/05 07:13:22;;;;;;;1.40;1.00;;;;;;;17.24;52.36;100356.72;5072967;28;20032;-65
2023/06/05 07:15:48;;;;;;;2.15;1.20;;;;;;;17.30;52.08;100357.72;5072742;28;20111;-65
2023/06/05 07:18:14;;;;;;;1.63;1.27;;;;;;;17.39;51.54;100351.03;5072871;28;20120;-65
2023/06/05 07:20:39;;;;;;;4.05;1.25;;;;;;;17.48;50.92;100355.16;5072311;28;20389;-65
2023/06/05 07:23:05;;;;;;;2.08;1.00;;;;;;;17.52;51.00;100353.66;5072606;28;20032;-65
2023/06/05 07:25:31;;;;;;;1.50;0.90;;;;;;;17.60;51.52;100353.41;5072554;28;20051;-65
2023/06/05 07:27:59;;;;;;;1.45;1.10;;;;;;;17.69;50.95;100358.53;5072576;28;20485;-66
2023/06/05 07:30:28;;;;;;;1.20;0.82;;;;;;;17.82;50.94;100353.91;5072321;28;20059;-66
2023/06/05 07:32:54;;;;;;;2.08;1.13;;;;;;;18.02;51.98;100358.34;5072383;28;20079;-66
2023/06/05 07:35:20;;;;;;;1.15;0.90;;;;;;;18.23;51.07;100354.44;5072685;28;20047;-65
2023/06/05 07:37:46;;;;;;;1.45;1.10;;;;;;;18.25;49.17;100346.94;5072442;28;20036;-65
2023/06/05 07:40:11;;;;;;;1.83;1.23;;;;;;;18.48;49.07;100349.84;5081757;28;20500;-65
2023/06/05 07:42:37;;;;;;;2.05;1.10;;;;;;;18.59;47.94;100349.13;5092820;28;20089;-65
2023/06/05 07:45:02;;;;;;;1.77;1.27;;;;;;;18.63;48.16;100353.00;5092496;28;20044;-65
2023/06/05 07:47:28;;;;;;;1.73;1.20;;;;;;;18.67;47.90;100348.84;5092445;28;20040;-65
2023/06/05 07:50:03;;;;;;;1.88;1.13;;;;;;;18.73;47.48;100346.31;5091988;28;20081;-65
2023/06/05 07:52:30;;;;;;;1.70;1.23;;;;;;;18.82;47.68;100343.06;5091262;28;20032;-65
2023/06/05 07:54:56;;;;;;;2.53;1.20;;;;;;;18.95;47.60;100348.31;5092220;28;20039;-65
2023/06/05 07:57:23;;;;;;;1.25;1.10;;;;;;;19.09;47.63;100345.47;5092093;28;20040;-65
2023/06/05 07:59:49;;;;;;;;;;;;;;;19.25;46.71;100353.78;5078886;28;20560;-65
2023/06/05 08:02:15;;;;;;;1.58;1.00;;;;;;;19.32;46.94;100344.78;5072021;28;20006;-65
2023/06/05 08:04:40;;;;;;;3.33;1.23;;;;;;;19.49;47.48;100348.47;5072085;28;20136;-65
2023/06/05 08:07:06;;;;;;;1.83;1.10;;;;;;;19.61;47.36;100351.25;5071841;28;20119;-65
2023/06/05 08:09:33;;;;;;;3.03;1.40;;;;;;;19.79;47.15;100349.31;5071747;28;20489;-63
2023/06/05 08:11:59;;;;;;;1.48;1.20;;;;;;;19.80;46.74;100347.44;5071808;28;20037;-65
2023/06/05 08:14:25;;;;;;;2.30;1.23;;;;;;;19.77;46.77;100347.91;5071967;28;20127;-65
2023/06/05 08:16:51;;;;;;;1.88;1.00;;;;;;;19.86;46.41;100343.78;5071822;28;20040;-65
2023/06/05 08:19:16;;;;;;;2.47;1.25;;;;;;;20.02;46.02;100343.13;5071628;28;20032;-65
2023/06/05 08:21:42;;;;;;;1.83;1.15;;;;;;;20.12;44.76;100341.72;5071672;28;20496;-64
2023/06/05 08:24:07;;;;;;;1.20;1.05;;;;;;;20.27;44.23;100340.19;5071864;28;20116;-65
2023/06/05 08:26:33;;;;;;;1.67;1.00;;;;;;;20.40;45.75;100347.25;5071835;28;20677;-65
2023/06/05 08:28:59;;;;;;;2.33;1.30;;;;;;;20.55;45.67;100341.44;5071511;28;20382;-65
2023/06/05 08:31:25;;;;;;;2.97;1.50;;;;;;;20.74;44.55;100344.81;5071692;28;20500;-64
2023/06/05 08:33:51;;;;;;;1.52;1.33;;;;;;;20.90;43.84;100340.53;5071646;28;20055;-64
2023/06/05 08:36:17;;;;;;;1.88;1.23;;;;;;;21.12;43.83;100345.06;5071546;28;20051;-64
2023/06/05 08:38:43;;;;;;;2.50;1.30;;;;;;;21.20;41.63;100338.47;5071398;28;20048;-64
2023/06/05 08:41:12;;;;;;;2.80;1.25;;;;;;;21.21;42.45;100331.97;5071659;28;20025;-64
2023/06/05 08:43:38;;;;;;;3.28;1.80;;;;;;;21.23;42.49;100326.31;5071559;28;20043;-65
2023/06/05 08:46:08;;;;;;;2.22;1.30;;;;;;;21.43;43.17;100331.34;5071313;28;20121;-64
2023/06/05 08:48:42;;;;;;;3.45;1.40;;;;;;;21.65;41.34;100324.16;5071333;28;20045;-65
2023/06/05 08:51:12;;;;;;;1.77;1.42;;;;;;;21.71;41.62;100327.75;5071657;28;20036;-64
2023/06/05 08:53:39;;;;;;;2.55;1.45;;;;;;;21.62;42.01;100330.06;5071480;28;20153;-64
2023/06/05 08:56:06;;;;;;;2.20;1.35;;;;;;;21.77;41.64;100324.91;5071420;28;20205;-64
2023/06/05 08:58:32;;;;;;;5.57;1.50;;;;;;;21.91;42.16;100328.16;5071215;28;20036;-65
2023/06/05 09:01:00;;;;;;;1.67;1.00;;;;;;;22.02;41.36;100326.41;5071433;28;20090;-65
2023/06/05 09:03:25;;;;;;;2.25;1.38;;;;;;;22.17;42.26;100327.50;5071549;28;20040;-64
2023/06/05 09:05:52;;;;;;;2.22;1.58;;;;;;;22.35;40.66;100326.41;5071355;28;20545;-65
2023/06/05 09:08:28;;;;;;;2.20;1.40;;;;;;;22.60;40.10;100320.53;5073139;28;20111;-65
2023/06/05 09:10:53;;;;;;;5.57;1.60;;;;;;;22.75;40.28;100312.56;5075092;28;20052;-65
2023/06/05 09:13:19;;;;;;;2.00;1.38;;;;;;;22.70;39.86;100312.53;5075028;28;20422;-65
2023/06/05 09:15:50;;;;;;;3.00;1.48;;;;;;;23.14;39.59;100326.13;5075023;28;20370;-65
2023/06/05 09:18:15;;;;;;;1.65;1.50;;;;;;;23.12;39.90;100320.13;5074833;28;20033;-65
2023/06/05 09:20:45;;;;;;;1.60;1.30;;;;;;;23.12;40.28;100320.13;5074718;28;20090;-66
2023/06/05 09:23:27;;;;;;;2.50;1.08;;;;;;;23.46;39.65;100314.50;5074924;28;20040;-66
2023/06/05 09:25:56;;;;;;;1.95;1.63;;;;;;;23.83;38.53;100325.50;5074757;28;20060;-65
2023/06/05 09:28:22;;;;;;;4.22;1.50;;;;;;;23.86;39.01;100321.44;5074520;28;20048;-66
2023/06/05 09:30:57;;;;;;;2.55;1.45;;;;;;;23.87;38.90;100313.03;5074731;28;20029;-65
2023/06/05 09:33:33;;;;;;;2.58;1.42;;;;;;;24.06;38.66;100311.56;5074987;28;20462;-65
2023/06/05 09:36:03;;;;;;;2.57;1.80;;;;;;;23.68;38.48;100309.88;5074662;28;20047;-66
2023/06/05 09:38:30;;;;;;;2.72;1.83;;;;;;;23.95;40.74;100304.38;5074355;28;20097;-65
2023/06/05 09:41:06;;;;;;;1.98;1.45;;;;;;;24.18;39.14;100310.53;5074620;28;20033;-66
2023/06/05 09:43:32;;;;;;;2.33;1.52;;;;;;;24.53;38.65;100304.53;5074484;28;20036;-67
2023/06/05 09:45:57;;;;;;;2.97;1.98;;;;;;;24.85;37.77;100307.16;5074493;28;20041;-65
2023/06/05 09:48:25;;;;;;;4.03;2.10;;;;;;;24.93;37.47;100303.91;5074245;28;20051;-65
2023/06/05 09:50:52;;;;;;;2.35;2.05;;;;;;;24.99;38.31;100304.75;5074213;28;20047;-65
2023/06/05 09:53:20;;;;;;;3.38;2.03;;;;;;;25.31;38.29;100299.16;5074420;28;20046;-66
2023/06/05 09:55:45;;;;;;;2.90;2.03;;;;;;;25.50;36.81;100300.28;5074269;28;20040;-65
2023/06/05 09:58:14;;;;;;;2.03;1.75;;;;;;;25.73;37.37;100292.69;5074218;28;20032;-65
2023/06/05 10:00:41;;;;;;;1.77;1.48;;;;;;;25.91;37.21;100292.13;5074165;28;20389;-65
2023/06/05 10:03:13;;;;;;;;;;;;;;;25.59;36.96;100289.63;5074427;28;20040;-65
2023/06/05 10:05:40;;;;;;;2.90;1.92;;;;;;;25.79;37.20;100291.59;5073955;28;19919;-65
2023/06/05 10:08:06;;;;;;;3.73;1.77;;;;;;;26.10;36.20;100295.13;5074093;28;20477;-65
2023/06/05 10:10:33;;;;;;;2.97;2.08;;;;;;;25.94;37.21;100291.56;5073843;28;20656;-65
2023/06/05 10:13:00;;;;;;;3.28;2.40;;;;;;;26.35;36.64;100286.06;5073972;28;20032;-65
2023/06/05 10:15:27;;;;;;;3.85;2.10;;;;;;;26.46;36.74;100283.06;5073992;28;20068;-65
2023/06/05 10:17:53;;;;;;;;;;;;;;;26.77;36.78;100286.50;5074021;28;20043;-64
2023/06/05 10:20:20;;;;;;;3.08;2.05;;;;;;;27.00;36.85;100282.31;5071899;28;20003;-65
2023/06/05 10:22:46;;;;;;;;;;;;;;;26.94;37.15;100283.44;5074207;28;20500;-65
2023/06/05 10:25:15;;;;;;;3.60;2.40;;;;;;;27.12;36.07;100287.44;5073819;28;20331;-66
2023/06/05 10:28:05;;;;;;;3.05;2.10;;;;;;;27.38;36.43;100287.28;5073772;28;20043;-66
2023/06/05 10:30:46;;;;;;;3.33;2.40;;;;;;;27.77;35.98;100284.56;5066889;28;20056;-66
2023/06/05 10:33:22;;;;;;;4.60;2.70;;;;;;;27.92;36.24;100275.44;5073453;28;20469;-65
2023/06/05 10:36:05;;;;;;;3.72;2.33;;;;;;;28.06;35.73;100287.34;5073533;28;20500;-65
2023/06/05 10:38:33;;;;;;;4.63;2.90;;;;;;;28.05;35.69;100281.06;5073187;28;20037;-66
2023/06/05 10:41:01;;;;;;;4.28;2.60;;;;;;;28.35;35.93;100284.59;5073560;28;20413;-66
2023/06/05 10:43:32;;;;;;;4.90;3.05;;;;;;;28.43;35.97;100280.41;5073488;28;20050;-66
2023/06/05 10:46:00;;;;;;;3.58;2.50;;;;;;;28.61;35.93;100279.66;5073314;28;20040;-66
2023/06/05 10:49:03;;;;;;;3.83;2.45;;;;;;;28.84;36.46;100264.31;5071679;28;20041;-64
2023/06/05 10:51:32;;;;;;;3.15;2.65;;;;;;;28.95;35.38;100260.34;5073259;28;20036;-65
2023/06/05 10:53:58;;;;;;;4.20;2.75;;;;;;;28.82;35.37;100267.34;5073260;28;20048;-65
2023/06/05 10:56:52;;;;;;;3.00;2.55;;;;;;;29.24;34.80;100259.41;5073149;28;20405;-65
2023/06/05 10:59:20;;;;;;;3.35;2.58;;;;;;;29.37;34.45;100258.66;5072813;28;20043;-65
2023/06/05 11:04:46;;;;;;;6.50;2.60;;;;;;;29.68;33.33;100250.78;5072796;28;20516;-65
2023/06/05 11:07:16;;;;;;;3.38;2.20;;;;;;;29.42;31.46;100250.34;5072868;28;20615;-64
2023/06/05 11:10:20;;;;;;;4.78;2.45;;;;;;;29.21;32.85;100247.06;5072499;28;20567;-64
2023/06/05 11:12:45;;;;;;;3.17;2.25;;;;;;;29.89;31.40;100245.75;5072893;28;20707;-66
2023/06/05 11:15:39;;;;;;;2.20;2.00;;;;;;;29.27;30.56;100248.63;5072617;28;20033;-66
2023/06/05 11:18:31;;;;;;;3.30;1.95;;;;;;;29.37;30.12;100240.25;5072678;28;20048;-64
2023/06/05 11:20:58;;;;;;;3.40;1.85;;;;;;;29.72;29.17;100229.81;5072550;28;20508;-65
2023/06/05 11:23:27;;;;;;;2.60;1.85;;;;;;;29.88;28.96;100231.19;5072542;28;20041;-64
2023/06/05 11:25:56;;;;;;;2.90;2.20;;;;;;;30.23;28.22;100239.91;5072468;28;20493;-65
2023/06/05 11:28:43;;;;;;;3.22;2.38;;;;;;;30.25;28.66;100235.72;5071043;28;20541;-65
2023/06/05 11:31:09;;;;;;;4.47;2.30;;;;;;;30.66;28.03;100232.19;5071913;28;20043;-65
2023/06/05 11:33:35;;;;;;;3.38;2.28;;;;;;;30.67;28.92;100241.22;5072620;28;20401;-65
2023/06/05 11:36:03;;;;;;;4.35;2.60;;;;;;;30.43;28.30;100236.75;5072337;28;20051;-65
2023/06/05 11:38:28;;;;;;;2.63;2.20;;;;;;;30.32;29.44;100231.78;5070721;28;20115;-64
2023/06/05 11:40:57;;;;;;;2.85;2.55;;;;;;;31.13;28.38;100223.75;5072128;28;20135;-65
2023/06/05 11:43:23;;;;;;;3.33;2.15;;;;;;;31.15;27.30;100221.50;5080406;28;20484;-65
2023/06/05 11:45:56;;;;;;;2.75;2.15;;;;;;;30.24;27.33;100220.38;5081499;28;20032;-65
2023/06/05 11:48:23;;;;;;;3.58;2.28;;;;;;;30.51;25.92;100233.28;5079708;28;20082;-65
2023/06/05 11:50:52;;;;;;;2.43;1.97;;;;;;;31.13;25.59;100226.50;5082554;28;20054;-65
2023/06/05 11:53:18;;;;;;;3.50;2.13;;;;;;;30.93;26.26;100236.84;5080066;28;20028;-65
2023/06/05 11:55:54;;;;;;;2.92;2.38;;;;;;;31.39;26.58;100229.50;5081451;28;20035;-65
2023/06/05 11:58:29;;;;;;;3.27;2.60;;;;;;;31.84;25.29;100225.59;5081772;28;20089;-65
2023/06/05 12:01:14;;;;;;;3.05;2.08;;;;;;;31.98;25.55;100225.50;5080939;28;20032;-65
2023/06/05 12:03:41;;;;;;;3.20;2.08;;;;;;;31.99;25.34;100229.06;5081482;28;20378;-65
2023/06/05 12:06:07;;;;;;;2.42;1.83;;;;;;;32.43;24.23;100228.16;5081008;28;20016;-65
2023/06/05 12:08:35;;;;;;;2.23;1.80;;;;;;;32.18;24.16;100215.06;5082510;28;20541;-65
2023/06/05 12:11:02;;;;;;;2.70;1.90;;;;;;;32.19;25.82;100224.94;5081559;28;20039;-65
2023/06/05 12:13:47;;;;;;;3.08;2.30;;;;;;;32.86;23.97;100210.88;5080781;28;20036;-65
2023/06/05 12:16:13;;;;;;;3.87;2.50;;;;;;;32.39;23.43;100216.94;5082466;28;20554;-65
2023/06/05 12:18:39;;;;;;;3.10;2.20;;;;;;;32.37;24.33;100218.41;5069358;28;20036;-64
2023/06/05 12:21:06;;;;;;;2.97;2.00;;;;;;;32.33;23.94;100209.94;5081202;28;20028;-65
2023/06/05 12:23:32;;;;;;;;;;;;;;;32.53;23.89;100207.72;5073184;28;20531;-64
2023/06/05 12:26:03;;;;;;;2.63;2.15;;;;;;;33.11;23.24;100199.06;5080992;28;20007;-64
2023/06/05 12:28:29;;;;;;;2.45;1.80;;;;;;;32.91;22.98;100200.53;5080276;28;20485;-64
2023/06/05 12:30:55;;;;;;;;;;;;;;;32.48;23.48;100205.97;5080862;28;20132;-64
2023/06/05 12:33:24;;;;;;;2.78;1.98;;;;;;;32.77;22.88;100204.53;5081369;28;19963;-63
2023/06/05 12:36:12;;;;;;;3.45;2.30;;;;;;;33.00;22.79;100199.75;5082547;28;20653;-65
2023/06/05 12:38:40;;;;;;;6.20;2.60;;;;;;;33.07;22.64;100194.53;5081648;28;20060;-64
2023/06/05 12:41:06;;;;;;;3.45;2.20;;;;;;;33.47;22.23;100206.22;5082047;28;20036;-64
2023/06/05 12:43:32;;;;;;;4.25;2.60;;;;;;;33.19;21.90;100195.50;5082944;28;20078;-65
2023/06/05 12:45:58;;;;;;;4.30;2.65;;;;;;;33.03;22.69;100185.28;5085863;28;20039;-65
2023/06/05 12:48:24;;;;;;;2.90;2.10;;;;;;;33.40;21.71;100194.88;5085631;28;20127;-65
2023/06/05 12:50:50;;;;;;;2.97;2.35;;;;;;;33.24;22.03;100189.00;5068963;28;20040;-65
2023/06/05 12:53:16;;;;;;;4.30;1.95;;;;;;;33.16;20.83;100182.34;5084657;28;20028;-65
2023/06/05 12:55:42;;;;;;;3.33;2.30;;;;;;;33.21;21.54;100181.38;5085188;28;20040;-65
2023/06/05 12:58:07;;;;;;;3.70;2.50;;;;;;;32.72;21.24;100182.63;5085994;28;20029;-65
2023/06/05 13:00:33;;;;;;;3.37;2.30;;;;;;;33.18;20.29;100174.56;5084071;28;20481;-65
2023/06/05 13:02:59;;;;;;;4.38;2.88;;;;;;;33.45;20.51;100187.22;5084400;28;20066;-65
2023/06/05 13:05:24;;;;;;;4.80;2.60;;;;;;;33.61;20.68;100181.19;5085412;28;20460;-65
2023/06/05 13:07:51;;;;;;;2.63;1.90;;;;;;;32.88;21.32;100161.75;5083942;28;20044;-65
2023/06/05 13:10:17;;;;;;;4.13;2.42;;;;;;;33.21;21.46;100176.69;5085652;28;20040;-65
2023/06/05 13:12:43;;;;;;;3.97;2.40;;;;;;;33.20;21.38;100175.06;5077693;28;20120;-66
2023/06/05 13:15:09;;;;;;;2.70;2.30;;;;;;;32.85;21.56;100162.38;5074952;28;20041;-65
2023/06/05 13:17:35;;;;;;;2.80;2.20;;;;;;;32.67;21.17;100167.09;5075069;28;20028;-65
2023/06/05 13:20:06;;;;;;;3.75;2.40;;;;;;;31.71;22.30;100162.34;5074519;28;20055;-65
2023/06/05 13:22:31;;;;;;;2.47;1.92;;;;;;;31.39;23.24;100167.00;5074855;28;20107;-64
2023/06/05 13:24:57;;;;;;;3.30;2.23;;;;;;;30.89;24.17;100147.84;5074764;28;20625;-66
2023/06/05 13:27:23;;;;;;;2.43;1.80;;;;;;;30.37;23.50;100141.81;5074663;28;20045;-65
2023/06/05 13:29:48;;;;;;;4.40;2.23;;;;;;;30.38;24.19;100148.13;5074486;28;20109;-65
2023/06/05 13:32:13;;;;;;;3.37;2.57;;;;;;;30.13;24.64;100152.25;5074709;28;20486;-65
2023/06/05 13:34:39;;;;;;;3.15;1.77;;;;;;;29.72;25.42;100142.81;5074756;28;20029;-65
2023/06/05 13:37:04;;;;;;;3.08;2.25;;;;;;;29.74;25.38;100134.31;5074667;28;20647;-64
2023/06/05 13:39:30;;;;;;;4.18;1.92;;;;;;;29.61;25.19;100135.09;5074326;28;20545;-66
2023/06/05 13:41:55;;;;;;;2.45;1.95;;;;;;;29.12;24.68;100133.69;5074506;28;20036;-66
2023/06/05 13:44:21;;;;;;;3.53;1.90;;;;;;;28.99;25.70;100131.72;5074419;28;20040;-65
2023/06/05 13:46:46;;;;;;;3.40;1.80;;;;;;;28.78;25.78;100125.72;5074257;28;20032;-66
2023/06/05 13:49:11;;;;;;;2.97;1.80;;;;;;;28.32;26.58;100127.16;5074201;28;20044;-65
2023/06/05 13:51:38;;;;;;;3.42;1.83;;;;;;;28.38;26.68;100131.47;5074495;28;20036;-64
2023/06/05 13:54:06;;;;;;;3.33;1.70;;;;;;;28.39;26.14;100137.75;5076275;28;20032;-64
2023/06/05 13:56:31;;;;;;;1.85;1.45;;;;;;;28.15;25.78;100124.06;5083303;28;20032;-64
2023/06/05 13:58:57;;;;;;;2.00;1.45;;;;;;;28.01;26.70;100120.41;5085806;28;20097;-64
2023/06/05 14:01:23;;;;;;;2.47;1.70;;;;;;;28.23;26.38;100131.63;5081998;28;20032;-64
2023/06/05 14:03:49;;;;;;;2.50;1.85;;;;;;;28.24;25.60;100119.59;5083680;28;20035;-64
2023/06/05 14:06:16;;;;;;;2.22;1.83;;;;;;;27.90;26.69;100116.97;5083010;28;20436;-63
2023/06/05 14:08:42;;;;;;;2.78;1.77;;;;;;;27.87;26.39;100125.78;5081552;28;20075;-66
2023/06/05 14:11:08;;;;;;;2.83;1.83;;;;;;;27.87;26.11;100124.97;5065850;28;20040;-65
2023/06/05 14:13:35;;;;;;;3.22;1.75;;;;;;;27.96;26.79;100118.53;5064780;28;20051;-63
2023/06/05 14:16:00;;;;;;;3.08;1.70;;;;;;;28.03;26.46;100121.72;5087801;28;20040;-64
2023/06/05 14:18:26;;;;;;;2.17;1.70;;;;;;;28.07;26.90;100113.75;5093971;28;20113;-66
2023/06/05 14:20:52;;;;;;;2.00;1.70;;;;;;;27.85;26.34;100112.38;5092708;28;20036;-64
2023/06/05 14:23:17;;;;;;;2.42;1.65;;;;;;;27.86;25.83;100113.19;5093909;28;20051;-64
2023/06/05 14:25:42;;;;;;;3.88;1.48;;;;;;;27.71;25.97;100122.41;5093945;28;20028;-64
2023/06/05 14:28:09;;;;;;;2.20;1.50;;;;;;;27.86;26.31;100113.19;5093792;28;20142;-62
2023/06/05 14:30:35;;;;;;;2.47;1.63;;;;;;;27.44;26.05;100122.06;5087979;28;20037;-64
2023/06/05 14:33:00;;;;;;;2.20;1.60;;;;;;;27.27;25.55;100117.84;5089798;28;20469;-66
2023/06/05 14:35:27;;;;;;;2.60;1.83;;;;;;;27.37;25.81;100114.19;5093767;28;20042;-64
2023/06/05 14:37:52;;;;;;;2.55;1.38;;;;;;;27.39;26.12;100111.19;5093714;28;20036;-65
2023/06/05 14:40:18;;;;;;;2.85;2.08;;;;;;;27.39;26.99;100112.00;5093371;28;20032;-64
2023/06/05 14:42:43;;;;;;;1.90;1.63;;;;;;;27.10;25.72;100103.78;5093513;28;20489;-64
2023/06/05 14:45:09;;;;;;;4.65;1.50;;;;;;;27.29;26.01;100107.44;5093448;28;20047;-65
2023/06/05 14:47:35;;;;;;;3.83;2.08;;;;;;;27.07;25.19;100107.09;5093507;28;20085;-65
2023/06/05 14:50:00;;;;;;;2.38;1.58;;;;;;;27.17;25.75;100111.66;5093165;28;20582;-66
2023/06/05 14:52:26;;;;;;;1.88;1.40;;;;;;;27.24;25.01;100103.94;5093343;28;20036;-64
2023/06/05 14:54:51;;;;;;;2.03;1.58;;;;;;;27.21;25.60;100108.06;5093343;28;20070;-65
2023/06/05 14:57:16;;;;;;;1.92;1.70;;;;;;;27.23;25.39;100107.78;5093286;28;20047;-65
2023/06/05 14:59:42;;;;;;;2.83;1.88;;;;;;;26.90;25.11;100098.44;5092896;28;20122;-66
2023/06/05 15:02:07;;;;;;;2.30;1.63;;;;;;;27.04;25.20;100102.16;5093298;28;20119;-65
2023/06/05 15:04:33;;;;;;;3.25;1.60;;;;;;;27.15;26.06;100100.19;5092823;28;20119;-65
2023/06/05 15:06:59;;;;;;;2.38;1.70;;;;;;;27.15;25.34;100095.53;5092513;28;20032;-64
2023/06/05 15:09:25;;;;;;;2.95;1.60;;;;;;;27.22;24.95;100101.50;5092811;28;20537;-64
2023/06/05 15:11:51;;;;;;;5.18;1.83;;;;;;;27.35;24.02;100097.28;5092910;28;20569;-65
2023/06/05 15:14:17;;;;;;;2.15;1.48;;;;;;;27.31;24.61;100091.56;5093047;28;20054;-66
2023/06/05 15:16:42;;;;;;;2.45;1.20;;;;;;;27.29;24.37;100088.31;5092851;28;20035;-64
2023/06/05 15:19:08;;;;;;;2.05;1.58;;;;;;;26.99;24.93;100070.22;5092560;28;20040;-64
2023/06/05 15:21:33;;;;;;;3.00;1.52;;;;;;;27.18;25.15;100088.66;5092735;28;20036;-64
2023/06/05 15:23:59;;;;;;;3.00;1.65;;;;;;;27.10;24.21;100083.84;5092886;28;20043;-66
2023/06/05 15:26:25;;;;;;;2.92;1.63;;;;;;;27.10;23.58;100084.66;5092691;28;20036;-64
2023/06/05 15:28:51;;;;;;;2.40;1.60;;;;;;;26.77;24.56;100080.78;5092838;28;20108;-65
2023/06/05 15:31:16;;;;;;;2.28;1.65;;;;;;;27.00;25.12;100084.72;5092581;28;20492;-65
2023/06/05 15:33:41;;;;;;;2.90;1.70;;;;;;;26.76;24.93;100076.41;5092659;28;20118;-67
2023/06/05 15:36:07;;;;;;;5.75;2.17;;;;;;;26.77;24.91;100070.66;5092336;28;20032;-64
2023/06/05 15:38:32;;;;;;;2.08;1.38;;;;;;;26.91;24.66;100078.22;5092211;28;20446;-65
2023/06/05 15:40:58;;;;;;;2.38;1.48;;;;;;;26.84;25.30;100081.28;5092442;28;20447;-65
2023/06/05 15:43:24;;;;;;;1.67;1.13;;;;;;;26.72;25.64;100073.44;5092597;28;20040;-63
2023/06/05 15:45:51;;;;;;;1.85;1.20;;;;;;;26.70;24.62;100075.63;5092587;28;20039;-65
2023/06/05 15:48:18;;;;;;;2.03;1.58;;;;;;;26.67;24.38;100072.66;5091873;28;20040;-65
2023/06/05 15:50:43;;;;;;;2.33;1.50;;;;;;;26.68;24.84;100066.09;5092229;28;20040;-60
2023/06/05 15:53:09;;;;;;;1.77;1.23;;;;;;;26.66;24.94;100066.38;5092232;28;20043;-60